Česky Dansk Deutsch English Español Suomi Français Magyar Italiano Nederlands norsk Polski Português svenska Türkçe

 

Het Weer

Leeuwarden (Nederland)

03:55, 1 augustus 2016 (GMT)

NWNNE
WE
SWSSE
Home            
Leeuwarden Groningen Airport Eelde Vlieland De Kooy Lelystad Meppen-Mil Amsterdam Airport Schiphol Soesterberg Nordhorn Deelen De Bilt Twenthe Wittmundhaven Jever Valkenburg Rheine-Bentlage Hopsten Rotterdam Airport Zestienhoven Kalkar Volkel Muenster / Osnabrueck Niederrhein Laarbruch

Om een weerknop op uw website of weblog te plaatsen, copieer onderstaande code en plak die in uw pagina. In het eerste vakje staat HTML-code, in het tweede vakje UBB-code.


Add to Google

Details

Wind speed:2 bf, 4 kn, 2.1 m/s, 4.6 miles/h, 7.4 km/h
Wind direction:SW, 230°
Visibility:Greater than 10000 m, 10 km, 32800 ft, 6.2 miles
Clouds:Geschlossene Wolkendecke at 10000 ft, 3048 m
Temperature:14°C, 57°F
Dew-point:11°C, 52°F
Atmospheric pressure:1016 hPa, 762.1 mmHg, 30.00 inHg, 1.003 atm
Relative humidity:82.1 %
METAR:EHLW 010355Z AUTO 23004KT 9999 OVC100 14/11 Q1016 BLU

Snelkoppelingen

Actuele weersinformatie van de hele wereld. Voeg locaties toe met het plus (+) symbool. Deze snelkoppelingen kunnen worden toegevoegd aan Google.

Lid van de Technetium groep

website free tracking
StatCounter NetStat W3C Validator

27-10-2020 01:44:14
astro.technetium.be money.technetium.be phote.technetium.be tafeltennistafel.technetium.be www.ligfiets.net